Terminal Aerodrome Forecast
Issued by NWS

Home | Current Version | Previous Version | Text Only | Print | Product List | Glossary On
Versions: 1 2 3 4 5 6 7 8 9 10 11 12 13 14 15 16 17 18 19 20 21 22 23 24 25 26 27 28 29 30 31 32 33 34 35 36 37 38 39 40 41 42
000
FTUS43 KMPX 240739 AAA
TAFAXN
TAF AMD
KAXN 240739Z 2408/2506 33017G28KT 3SM -SHSN BLSN OVC025
     FM241000 33023G34KT 1 1/2SM BLSN OVC016
      TEMPO 2410/2412 3/4SM BLSN
     FM241400 32019G29KT 3SM BLSN SKC
     FM250000 29008KT P6SM SKC=

USA.gov is the U.S. government's official web portal to all federal, state and local government web resources and services.